sensor_id;sensor_type;location;lat;lon;timestamp;P1;durP1;ratioP1;P2;durP2;ratioP2
75377;SDS011;63959;51.960;5.886;2023-03-23T00:01:28;9.02;;;3.92;;
75377;SDS011;63959;51.960;5.886;2023-03-23T00:03:57;6.85;;;3.25;;
75377;SDS011;63959;51.960;5.886;2023-03-23T00:06:27;5.90;;;3.47;;
75377;SDS011;63959;51.960;5.886;2023-03-23T00:08:58;8.10;;;3.60;;
75377;SDS011;63959;51.960;5.886;2023-03-23T00:11:30;7.80;;;3.08;;
75377;SDS011;63959;51.960;5.886;2023-03-23T00:14:01;7.03;;;2.88;;
75377;SDS011;63959;51.960;5.886;2023-03-23T00:16:30;6.40;;;3.05;;
75377;SDS011;63959;51.960;5.886;2023-03-23T00:19:03;6.35;;;2.80;;
75377;SDS011;63959;51.960;5.886;2023-03-23T00:21:33;9.45;;;3.35;;
75377;SDS011;63959;51.960;5.886;2023-03-23T00:24:05;9.15;;;3.08;;
75377;SDS011;63959;51.960;5.886;2023-03-23T00:26:35;6.65;;;3.10;;
75377;SDS011;63959;51.960;5.886;2023-03-23T00:29:10;9.60;;;3.63;;
75377;SDS011;63959;51.960;5.886;2023-03-23T00:31:41;6.53;;;3.13;;
75377;SDS011;63959;51.960;5.886;2023-03-23T00:34:13;9.57;;;3.50;;
75377;SDS011;63959;51.960;5.886;2023-03-23T00:36:45;8.23;;;3.50;;
75377;SDS011;63959;51.960;5.886;2023-03-23T00:41:55;8.75;;;3.17;;
75377;SDS011;63959;51.960;5.886;2023-03-23T00:44:29;7.55;;;3.20;;
75377;SDS011;63959;51.960;5.886;2023-03-23T00:47:00;7.25;;;3.22;;
75377;SDS011;63959;51.960;5.886;2023-03-23T00:49:32;6.55;;;3.08;;
75377;SDS011;63959;51.960;5.886;2023-03-23T00:52:01;6.70;;;3.20;;
75377;SDS011;63959;51.960;5.886;2023-03-23T00:54:31;6.05;;;3.28;;
75377;SDS011;63959;51.960;5.886;2023-03-23T00:57:00;8.55;;;3.38;;
75377;SDS011;63959;51.960;5.886;2023-03-23T00:59:31;7.68;;;3.58;;
75377;SDS011;63959;51.960;5.886;2023-03-23T01:02:00;8.00;;;2.72;;
75377;SDS011;63959;51.960;5.886;2023-03-23T01:04:29;7.20;;;3.10;;
75377;SDS011;63959;51.960;5.886;2023-03-23T01:06:58;8.32;;;3.25;;
75377;SDS011;63959;51.960;5.886;2023-03-23T01:09:31;7.40;;;3.42;;
75377;SDS011;63959;51.960;5.886;2023-03-23T01:12:01;7.93;;;3.35;;
75377;SDS011;63959;51.960;5.886;2023-03-23T01:14:34;8.15;;;3.13;;
75377;SDS011;63959;51.960;5.886;2023-03-23T01:17:03;7.20;;;3.63;;
75377;SDS011;63959;51.960;5.886;2023-03-23T01:19:34;6.07;;;2.78;;
75377;SDS011;63959;51.960;5.886;2023-03-23T01:22:03;6.63;;;3.30;;
75377;SDS011;63959;51.960;5.886;2023-03-23T01:24:31;7.13;;;3.60;;
75377;SDS011;63959;51.960;5.886;2023-03-23T01:27:00;7.53;;;3.55;;
75377;SDS011;63959;51.960;5.886;2023-03-23T01:29:35;5.90;;;2.95;;
75377;SDS011;63959;51.960;5.886;2023-03-23T01:32:03;7.18;;;3.25;;
75377;SDS011;63959;51.960;5.886;2023-03-23T01:34:32;7.47;;;3.03;;
75377;SDS011;63959;51.960;5.886;2023-03-23T01:37:02;6.72;;;2.97;;
75377;SDS011;63959;51.960;5.886;2023-03-23T01:39:31;5.88;;;3.03;;
75377;SDS011;63959;51.960;5.886;2023-03-23T01:42:02;7.05;;;3.20;;
75377;SDS011;63959;51.960;5.886;2023-03-23T01:47:19;5.15;;;2.45;;
75377;SDS011;63959;51.960;5.886;2023-03-23T01:49:52;5.85;;;2.85;;
75377;SDS011;63959;51.960;5.886;2023-03-23T01:52:24;8.02;;;3.42;;
75377;SDS011;63959;51.960;5.886;2023-03-23T01:54:58;6.50;;;2.88;;
75377;SDS011;63959;51.960;5.886;2023-03-23T01:57:27;6.88;;;3.00;;
75377;SDS011;63959;51.960;5.886;2023-03-23T01:59:58;6.57;;;2.78;;
75377;SDS011;63959;51.960;5.886;2023-03-23T02:02:49;6.95;;;2.80;;
75377;SDS011;63959;51.960;5.886;2023-03-23T02:05:23;7.13;;;2.95;;
75377;SDS011;63959;51.960;5.886;2023-03-23T02:07:53;8.27;;;3.33;;
75377;SDS011;63959;51.960;5.886;2023-03-23T02:10:26;6.05;;;3.28;;
75377;SDS011;63959;51.960;5.886;2023-03-23T02:12:58;7.15;;;3.00;;
75377;SDS011;63959;51.960;5.886;2023-03-23T02:15:30;6.57;;;3.25;;
75377;SDS011;63959;51.960;5.886;2023-03-23T02:18:06;6.43;;;3.85;;
75377;SDS011;63959;51.960;5.886;2023-03-23T02:20:51;6.32;;;3.30;;
75377;SDS011;63959;51.960;5.886;2023-03-23T02:23:40;8.40;;;3.75;;
75377;SDS011;63959;51.960;5.886;2023-03-23T02:26:33;6.38;;;3.50;;
75377;SDS011;63959;51.960;5.886;2023-03-23T02:29:07;6.40;;;3.13;;
75377;SDS011;63959;51.960;5.886;2023-03-23T02:31:53;6.88;;;3.80;;
75377;SDS011;63959;51.960;5.886;2023-03-23T02:34:28;8.32;;;3.75;;
75377;SDS011;63959;51.960;5.886;2023-03-23T02:39:29;6.47;;;3.33;;
75377;SDS011;63959;51.960;5.886;2023-03-23T02:42:01;7.82;;;3.42;;
75377;SDS011;63959;51.960;5.886;2023-03-23T02:44:31;6.32;;;2.75;;
75377;SDS011;63959;51.960;5.886;2023-03-23T02:47:09;7.45;;;3.55;;
75377;SDS011;63959;51.960;5.886;2023-03-23T02:49:42;7.32;;;3.40;;
75377;SDS011;63959;51.960;5.886;2023-03-23T02:52:14;7.63;;;3.85;;
75377;SDS011;63959;51.960;5.886;2023-03-23T02:54:46;7.38;;;3.38;;
75377;SDS011;63959;51.960;5.886;2023-03-23T02:57:16;7.95;;;3.65;;
75377;SDS011;63959;51.960;5.886;2023-03-23T02:59:46;7.78;;;3.60;;
75377;SDS011;63959;51.960;5.886;2023-03-23T03:02:23;9.63;;;3.28;;
75377;SDS011;63959;51.960;5.886;2023-03-23T03:05:02;7.05;;;3.30;;
75377;SDS011;63959;51.960;5.886;2023-03-23T03:07:52;8.07;;;3.58;;
75377;SDS011;63959;51.960;5.886;2023-03-23T03:10:24;6.95;;;3.70;;
75377;SDS011;63959;51.960;5.886;2023-03-23T03:12:57;7.63;;;3.50;;
75377;SDS011;63959;51.960;5.886;2023-03-23T03:15:33;6.93;;;3.47;;
75377;SDS011;63959;51.960;5.886;2023-03-23T03:18:11;8.40;;;3.47;;
75377;SDS011;63959;51.960;5.886;2023-03-23T03:20:53;7.93;;;3.47;;
75377;SDS011;63959;51.960;5.886;2023-03-23T03:23:24;7.72;;;3.50;;
75377;SDS011;63959;51.960;5.886;2023-03-23T03:25:59;6.88;;;3.33;;
75377;SDS011;63959;51.960;5.886;2023-03-23T03:28:41;5.78;;;3.45;;
75377;SDS011;63959;51.960;5.886;2023-03-23T03:31:13;5.68;;;3.15;;
75377;SDS011;63959;51.960;5.886;2023-03-23T03:33:43;7.93;;;3.53;;
75377;SDS011;63959;51.960;5.886;2023-03-23T03:36:18;7.63;;;3.53;;
75377;SDS011;63959;51.960;5.886;2023-03-23T03:38:48;7.03;;;3.00;;
75377;SDS011;63959;51.960;5.886;2023-03-23T03:41:19;6.28;;;3.25;;
75377;SDS011;63959;51.960;5.886;2023-03-23T03:43:48;7.13;;;3.47;;
75377;SDS011;63959;51.960;5.886;2023-03-23T03:46:17;6.80;;;3.80;;
75377;SDS011;63959;51.960;5.886;2023-03-23T03:48:45;7.15;;;3.50;;
75377;SDS011;63959;51.960;5.886;2023-03-23T03:51:21;7.22;;;3.70;;
75377;SDS011;63959;51.960;5.886;2023-03-23T03:53:51;7.38;;;3.63;;
75377;SDS011;63959;51.960;5.886;2023-03-23T03:56:20;8.23;;;3.85;;
75377;SDS011;63959;51.960;5.886;2023-03-23T03:59:02;5.25;;;2.90;;
75377;SDS011;63959;51.960;5.886;2023-03-23T04:01:57;6.82;;;3.60;;
75377;SDS011;63959;51.960;5.886;2023-03-23T04:04:26;8.23;;;3.67;;
75377;SDS011;63959;51.960;5.886;2023-03-23T04:06:57;5.78;;;3.22;;
75377;SDS011;63959;51.960;5.886;2023-03-23T04:09:27;6.72;;;3.42;;
75377;SDS011;63959;51.960;5.886;2023-03-23T04:11:57;7.50;;;3.67;;
75377;SDS011;63959;51.960;5.886;2023-03-23T04:14:44;6.05;;;3.63;;
75377;SDS011;63959;51.960;5.886;2023-03-23T04:17:13;7.18;;;3.53;;
75377;SDS011;63959;51.960;5.886;2023-03-23T04:19:46;5.90;;;3.47;;
75377;SDS011;63959;51.960;5.886;2023-03-23T04:22:20;8.68;;;4.25;;
75377;SDS011;63959;51.960;5.886;2023-03-23T04:24:50;6.80;;;3.35;;
75377;SDS011;63959;51.960;5.886;2023-03-23T04:27:20;6.68;;;3.40;;
75377;SDS011;63959;51.960;5.886;2023-03-23T04:29:50;6.70;;;3.05;;
75377;SDS011;63959;51.960;5.886;2023-03-23T04:32:34;6.10;;;3.58;;
75377;SDS011;63959;51.960;5.886;2023-03-23T04:35:08;5.35;;;3.03;;
75377;SDS011;63959;51.960;5.886;2023-03-23T04:37:44;6.25;;;3.05;;
75377;SDS011;63959;51.960;5.886;2023-03-23T04:40:16;8.20;;;3.10;;
75377;SDS011;63959;51.960;5.886;2023-03-23T04:42:54;6.55;;;3.10;;
75377;SDS011;63959;51.960;5.886;2023-03-23T04:45:40;6.13;;;2.58;;
75377;SDS011;63959;51.960;5.886;2023-03-23T04:48:12;6.45;;;3.10;;
75377;SDS011;63959;51.960;5.886;2023-03-23T04:50:56;7.72;;;2.90;;
75377;SDS011;63959;51.960;5.886;2023-03-23T04:53:31;6.45;;;3.05;;
75377;SDS011;63959;51.960;5.886;2023-03-23T04:56:01;5.50;;;2.75;;
75377;SDS011;63959;51.960;5.886;2023-03-23T04:58:37;5.68;;;2.42;;
75377;SDS011;63959;51.960;5.886;2023-03-23T05:01:17;6.93;;;2.60;;
75377;SDS011;63959;51.960;5.886;2023-03-23T05:04:04;8.65;;;2.72;;
75377;SDS011;63959;51.960;5.886;2023-03-23T05:06:34;9.48;;;3.08;;
75377;SDS011;63959;51.960;5.886;2023-03-23T05:09:13;6.05;;;2.42;;
75377;SDS011;63959;51.960;5.886;2023-03-23T05:11:42;8.23;;;2.40;;
75377;SDS011;63959;51.960;5.886;2023-03-23T05:14:11;7.60;;;2.50;;
75377;SDS011;63959;51.960;5.886;2023-03-23T05:16:44;9.90;;;2.47;;
75377;SDS011;63959;51.960;5.886;2023-03-23T05:19:15;8.02;;;2.20;;
75377;SDS011;63959;51.960;5.886;2023-03-23T05:21:46;8.95;;;2.55;;
75377;SDS011;63959;51.960;5.886;2023-03-23T05:24:19;6.07;;;2.38;;
75377;SDS011;63959;51.960;5.886;2023-03-23T05:26:50;9.07;;;2.38;;
75377;SDS011;63959;51.960;5.886;2023-03-23T05:29:25;7.60;;;1.98;;
75377;SDS011;63959;51.960;5.886;2023-03-23T05:32:02;8.20;;;2.10;;
75377;SDS011;63959;51.960;5.886;2023-03-23T05:34:35;10.43;;;2.20;;
75377;SDS011;63959;51.960;5.886;2023-03-23T05:37:04;8.13;;;1.83;;
75377;SDS011;63959;51.960;5.886;2023-03-23T05:40:09;6.25;;;2.05;;
75377;SDS011;63959;51.960;5.886;2023-03-23T05:42:48;7.60;;;2.15;;
75377;SDS011;63959;51.960;5.886;2023-03-23T05:45:24;6.25;;;1.88;;
75377;SDS011;63959;51.960;5.886;2023-03-23T05:47:59;8.77;;;2.40;;
75377;SDS011;63959;51.960;5.886;2023-03-23T05:50:28;5.32;;;2.08;;
75377;SDS011;63959;51.960;5.886;2023-03-23T05:53:05;7.07;;;1.80;;
75377;SDS011;63959;51.960;5.886;2023-03-23T05:55:41;6.72;;;1.75;;
75377;SDS011;63959;51.960;5.886;2023-03-23T05:58:20;5.32;;;1.60;;
75377;SDS011;63959;51.960;5.886;2023-03-23T06:00:50;5.72;;;1.60;;
75377;SDS011;63959;51.960;5.886;2023-03-23T06:03:25;8.00;;;1.95;;
75377;SDS011;63959;51.960;5.886;2023-03-23T06:06:12;8.30;;;1.80;;
75377;SDS011;63959;51.960;5.886;2023-03-23T06:08:54;6.82;;;1.90;;
75377;SDS011;63959;51.960;5.886;2023-03-23T06:11:43;6.05;;;1.75;;
75377;SDS011;63959;51.960;5.886;2023-03-23T06:17:13;4.35;;;1.23;;
75377;SDS011;63959;51.960;5.886;2023-03-23T06:19:43;6.28;;;1.90;;
75377;SDS011;63959;51.960;5.886;2023-03-23T06:22:15;4.57;;;1.65;;
75377;SDS011;63959;51.960;5.886;2023-03-23T06:24:44;8.25;;;1.83;;
75377;SDS011;63959;51.960;5.886;2023-03-23T06:27:20;9.20;;;1.90;;
75377;SDS011;63959;51.960;5.886;2023-03-23T06:29:49;6.13;;;1.90;;
75377;SDS011;63959;51.960;5.886;2023-03-23T06:32:19;5.20;;;1.35;;
75377;SDS011;63959;51.960;5.886;2023-03-23T06:34:48;3.95;;;1.45;;
75377;SDS011;63959;51.960;5.886;2023-03-23T06:37:39;6.95;;;1.77;;
75377;SDS011;63959;51.960;5.886;2023-03-23T06:40:20;10.10;;;1.90;;
75377;SDS011;63959;51.960;5.886;2023-03-23T06:42:56;7.75;;;1.55;;
75377;SDS011;63959;51.960;5.886;2023-03-23T06:45:31;7.95;;;1.83;;
75377;SDS011;63959;51.960;5.886;2023-03-23T06:48:19;6.38;;;1.92;;
75377;SDS011;63959;51.960;5.886;2023-03-23T06:50:48;6.85;;;1.52;;
75377;SDS011;63959;51.960;5.886;2023-03-23T06:53:19;6.20;;;1.52;;
75377;SDS011;63959;51.960;5.886;2023-03-23T06:55:50;6.70;;;1.70;;
75377;SDS011;63959;51.960;5.886;2023-03-23T06:58:21;7.93;;;1.80;;
75377;SDS011;63959;51.960;5.886;2023-03-23T07:00:53;7.20;;;1.90;;
75377;SDS011;63959;51.960;5.886;2023-03-23T07:03:23;5.55;;;1.70;;
75377;SDS011;63959;51.960;5.886;2023-03-23T07:05:52;6.43;;;1.70;;
75377;SDS011;63959;51.960;5.886;2023-03-23T07:08:25;6.20;;;1.85;;
75377;SDS011;63959;51.960;5.886;2023-03-23T07:10:55;5.15;;;1.70;;
75377;SDS011;63959;51.960;5.886;2023-03-23T07:13:29;8.43;;;1.90;;
75377;SDS011;63959;51.960;5.886;2023-03-23T07:16:00;7.05;;;1.80;;
75377;SDS011;63959;51.960;5.886;2023-03-23T07:18:29;10.85;;;2.13;;
75377;SDS011;63959;51.960;5.886;2023-03-23T07:21:00;8.85;;;2.20;;
75377;SDS011;63959;51.960;5.886;2023-03-23T07:23:31;7.07;;;1.98;;
75377;SDS011;63959;51.960;5.886;2023-03-23T07:26:09;9.85;;;2.25;;
75377;SDS011;63959;51.960;5.886;2023-03-23T07:28:48;9.27;;;2.08;;
75377;SDS011;63959;51.960;5.886;2023-03-23T07:31:23;5.20;;;1.70;;
75377;SDS011;63959;51.960;5.886;2023-03-23T07:33:53;9.98;;;2.35;;
75377;SDS011;63959;51.960;5.886;2023-03-23T07:36:26;5.82;;;1.88;;
75377;SDS011;63959;51.960;5.886;2023-03-23T07:38:55;7.00;;;1.80;;
75377;SDS011;63959;51.960;5.886;2023-03-23T07:41:24;6.25;;;1.50;;
75377;SDS011;63959;51.960;5.886;2023-03-23T07:43:57;4.53;;;1.50;;
75377;SDS011;63959;51.960;5.886;2023-03-23T07:46:35;4.22;;;1.30;;
75377;SDS011;63959;51.960;5.886;2023-03-23T07:49:15;5.32;;;1.35;;
75377;SDS011;63959;51.960;5.886;2023-03-23T07:51:51;5.95;;;1.38;;
75377;SDS011;63959;51.960;5.886;2023-03-23T07:54:22;4.45;;;1.52;;
75377;SDS011;63959;51.960;5.886;2023-03-23T07:57:02;8.07;;;2.00;;
75377;SDS011;63959;51.960;5.886;2023-03-23T07:59:39;8.20;;;2.28;;
75377;SDS011;63959;51.960;5.886;2023-03-23T08:02:08;6.50;;;1.85;;
75377;SDS011;63959;51.960;5.886;2023-03-23T08:04:43;5.15;;;1.70;;
75377;SDS011;63959;51.960;5.886;2023-03-23T08:07:13;6.15;;;1.70;;
75377;SDS011;63959;51.960;5.886;2023-03-23T08:10:06;7.30;;;2.00;;
75377;SDS011;63959;51.960;5.886;2023-03-23T08:12:39;6.78;;;2.05;;
75377;SDS011;63959;51.960;5.886;2023-03-23T08:15:28;7.85;;;1.90;;
75377;SDS011;63959;51.960;5.886;2023-03-23T08:18:15;8.48;;;1.92;;
75377;SDS011;63959;51.960;5.886;2023-03-23T08:21:20;6.43;;;1.90;;
75377;SDS011;63959;51.960;5.886;2023-03-23T08:24:07;8.93;;;1.77;;
75377;SDS011;63959;51.960;5.886;2023-03-23T08:27:03;8.70;;;2.17;;
75377;SDS011;63959;51.960;5.886;2023-03-23T08:29:41;8.02;;;2.30;;
75377;SDS011;63959;51.960;5.886;2023-03-23T08:32:27;8.00;;;2.20;;
75377;SDS011;63959;51.960;5.886;2023-03-23T08:35:19;8.07;;;2.28;;
75377;SDS011;63959;51.960;5.886;2023-03-23T08:38:04;8.50;;;2.58;;
75377;SDS011;63959;51.960;5.886;2023-03-23T08:40:59;6.63;;;2.00;;
75377;SDS011;63959;51.960;5.886;2023-03-23T08:43:55;6.57;;;1.92;;
75377;SDS011;63959;51.960;5.886;2023-03-23T08:46:53;7.18;;;1.70;;
75377;SDS011;63959;51.960;5.886;2023-03-23T08:49:44;6.00;;;1.42;;
75377;SDS011;63959;51.960;5.886;2023-03-23T08:52:38;9.35;;;2.05;;
75377;SDS011;63959;51.960;5.886;2023-03-23T08:55:28;5.47;;;1.65;;
75377;SDS011;63959;51.960;5.886;2023-03-23T08:58:20;6.18;;;1.55;;
75377;SDS011;63959;51.960;5.886;2023-03-23T09:01:06;4.57;;;1.48;;
75377;SDS011;63959;51.960;5.886;2023-03-23T09:03:52;7.07;;;1.73;;
75377;SDS011;63959;51.960;5.886;2023-03-23T09:06:32;4.60;;;1.50;;
75377;SDS011;63959;51.960;5.886;2023-03-23T09:09:02;6.95;;;1.90;;
75377;SDS011;63959;51.960;5.886;2023-03-23T09:11:32;6.45;;;1.92;;
75377;SDS011;63959;51.960;5.886;2023-03-23T09:14:01;2.95;;;1.23;;
75377;SDS011;63959;51.960;5.886;2023-03-23T09:16:30;5.35;;;1.35;;
75377;SDS011;63959;51.960;5.886;2023-03-23T09:18:59;4.38;;;1.25;;
75377;SDS011;63959;51.960;5.886;2023-03-23T09:21:28;6.93;;;1.30;;
75377;SDS011;63959;51.960;5.886;2023-03-23T09:24:02;3.80;;;1.02;;
75377;SDS011;63959;51.960;5.886;2023-03-23T09:26:31;4.05;;;1.10;;
75377;SDS011;63959;51.960;5.886;2023-03-23T09:29:00;4.03;;;1.23;;
75377;SDS011;63959;51.960;5.886;2023-03-23T09:31:29;3.60;;;1.20;;
75377;SDS011;63959;51.960;5.886;2023-03-23T09:33:58;5.57;;;1.30;;
75377;SDS011;63959;51.960;5.886;2023-03-23T09:36:28;5.07;;;1.50;;
75377;SDS011;63959;51.960;5.886;2023-03-23T09:39:00;8.73;;;1.77;;
75377;SDS011;63959;51.960;5.886;2023-03-23T09:44:28;6.55;;;1.33;;
75377;SDS011;63959;51.960;5.886;2023-03-23T09:46:59;3.97;;;1.33;;
75377;SDS011;63959;51.960;5.886;2023-03-23T09:49:32;5.22;;;1.50;;
75377;SDS011;63959;51.960;5.886;2023-03-23T09:52:02;5.20;;;1.38;;
75377;SDS011;63959;51.960;5.886;2023-03-23T09:54:35;5.40;;;1.55;;
75377;SDS011;63959;51.960;5.886;2023-03-23T09:57:05;7.07;;;1.63;;
75377;SDS011;63959;51.960;5.886;2023-03-23T09:59:39;5.85;;;1.60;;
75377;SDS011;63959;51.960;5.886;2023-03-23T10:02:11;7.45;;;1.70;;
75377;SDS011;63959;51.960;5.886;2023-03-23T10:04:43;7.90;;;2.05;;
75377;SDS011;63959;51.960;5.886;2023-03-23T10:07:12;8.13;;;1.50;;
75377;SDS011;63959;51.960;5.886;2023-03-23T10:09:45;10.35;;;2.00;;
75377;SDS011;63959;51.960;5.886;2023-03-23T10:12:17;8.07;;;1.92;;
75377;SDS011;63959;51.960;5.886;2023-03-23T10:14:51;11.95;;;2.28;;
75377;SDS011;63959;51.960;5.886;2023-03-23T10:17:22;6.28;;;1.48;;
75377;SDS011;63959;51.960;5.886;2023-03-23T10:19:54;9.45;;;2.03;;
75377;SDS011;63959;51.960;5.886;2023-03-23T10:22:26;7.35;;;1.40;;
75377;SDS011;63959;51.960;5.886;2023-03-23T10:25:03;10.93;;;1.98;;
75377;SDS011;63959;51.960;5.886;2023-03-23T10:27:37;6.15;;;1.50;;
75377;SDS011;63959;51.960;5.886;2023-03-23T10:30:11;10.18;;;2.63;;
75377;SDS011;63959;51.960;5.886;2023-03-23T10:32:43;12.00;;;2.40;;
75377;SDS011;63959;51.960;5.886;2023-03-23T10:35:15;10.45;;;2.58;;
75377;SDS011;63959;51.960;5.886;2023-03-23T10:37:47;9.43;;;2.20;;
75377;SDS011;63959;51.960;5.886;2023-03-23T10:40:20;9.95;;;2.15;;
75377;SDS011;63959;51.960;5.886;2023-03-23T10:42:50;6.82;;;2.17;;
75377;SDS011;63959;51.960;5.886;2023-03-23T10:45:21;9.93;;;2.00;;
75377;SDS011;63959;51.960;5.886;2023-03-23T10:47:52;8.32;;;1.90;;
75377;SDS011;63959;51.960;5.886;2023-03-23T10:50:22;7.05;;;2.17;;
75377;SDS011;63959;51.960;5.886;2023-03-23T10:52:52;7.85;;;1.60;;
75377;SDS011;63959;51.960;5.886;2023-03-23T10:55:35;9.27;;;2.47;;
75377;SDS011;63959;51.960;5.886;2023-03-23T10:58:05;9.85;;;2.03;;
75377;SDS011;63959;51.960;5.886;2023-03-23T11:00:39;10.10;;;1.98;;
75377;SDS011;63959;51.960;5.886;2023-03-23T11:03:20;8.15;;;2.10;;
75377;SDS011;63959;51.960;5.886;2023-03-23T11:05:52;11.73;;;2.40;;
75377;SDS011;63959;51.960;5.886;2023-03-23T11:08:23;11.75;;;2.38;;
75377;SDS011;63959;51.960;5.886;2023-03-23T11:10:56;7.15;;;2.15;;
75377;SDS011;63959;51.960;5.886;2023-03-23T11:13:27;9.50;;;2.10;;
75377;SDS011;63959;51.960;5.886;2023-03-23T11:15:56;9.98;;;2.35;;
75377;SDS011;63959;51.960;5.886;2023-03-23T11:18:34;7.40;;;2.00;;
75377;SDS011;63959;51.960;5.886;2023-03-23T11:21:03;7.10;;;2.05;;
75377;SDS011;63959;51.960;5.886;2023-03-23T11:23:33;8.25;;;2.15;;
75377;SDS011;63959;51.960;5.886;2023-03-23T11:26:11;7.03;;;2.08;;
75377;SDS011;63959;51.960;5.886;2023-03-23T11:28:45;8.35;;;2.00;;
75377;SDS011;63959;51.960;5.886;2023-03-23T11:31:15;9.27;;;2.08;;
75377;SDS011;63959;51.960;5.886;2023-03-23T11:33:47;9.90;;;2.30;;
75377;SDS011;63959;51.960;5.886;2023-03-23T11:36:17;8.00;;;2.13;;
75377;SDS011;63959;51.960;5.886;2023-03-23T11:38:52;10.43;;;2.15;;
75377;SDS011;63959;51.960;5.886;2023-03-23T11:41:28;9.45;;;2.53;;
75377;SDS011;63959;51.960;5.886;2023-03-23T11:43:57;6.97;;;2.38;;
75377;SDS011;63959;51.960;5.886;2023-03-23T11:46:33;5.53;;;1.75;;
75377;SDS011;63959;51.960;5.886;2023-03-23T11:49:03;7.05;;;2.13;;
75377;SDS011;63959;51.960;5.886;2023-03-23T11:51:34;6.63;;;2.20;;
75377;SDS011;63959;51.960;5.886;2023-03-23T11:54:09;10.93;;;2.70;;
75377;SDS011;63959;51.960;5.886;2023-03-23T11:56:42;8.45;;;2.30;;
75377;SDS011;63959;51.960;5.886;2023-03-23T11:59:12;7.55;;;2.13;;
75377;SDS011;63959;51.960;5.886;2023-03-23T12:01:51;8.57;;;2.40;;
75377;SDS011;63959;51.960;5.886;2023-03-23T12:04:30;11.43;;;2.42;;
75377;SDS011;63959;51.960;5.886;2023-03-23T12:09:47;9.07;;;2.42;;
75377;SDS011;63959;51.960;5.886;2023-03-23T12:12:21;8.32;;;2.15;;
75377;SDS011;63959;51.960;5.886;2023-03-23T12:14:56;10.18;;;2.10;;
75377;SDS011;63959;51.960;5.886;2023-03-23T12:17:29;8.05;;;2.45;;
75377;SDS011;63959;51.960;5.886;2023-03-23T12:20:03;7.68;;;3.17;;
75377;SDS011;63959;51.960;5.886;2023-03-23T12:22:40;9.13;;;2.30;;
75377;SDS011;63959;51.960;5.886;2023-03-23T12:25:18;6.55;;;2.80;;
75377;SDS011;63959;51.960;5.886;2023-03-23T12:27:53;7.78;;;2.67;;
75377;SDS011;63959;51.960;5.886;2023-03-23T12:30:28;5.50;;;2.50;;
75377;SDS011;63959;51.960;5.886;2023-03-23T12:33:04;8.10;;;3.03;;
75377;SDS011;63959;51.960;5.886;2023-03-23T12:35:40;7.63;;;2.00;;
75377;SDS011;63959;51.960;5.886;2023-03-23T12:38:19;6.28;;;2.58;;
75377;SDS011;63959;51.960;5.886;2023-03-23T12:40:59;11.25;;;3.30;;
75377;SDS011;63959;51.960;5.886;2023-03-23T12:43:34;7.47;;;2.47;;
75377;SDS011;63959;51.960;5.886;2023-03-23T12:46:13;8.40;;;2.30;;
75377;SDS011;63959;51.960;5.886;2023-03-23T12:48:44;7.25;;;2.50;;
75377;SDS011;63959;51.960;5.886;2023-03-23T12:51:16;7.00;;;2.22;;
75377;SDS011;63959;51.960;5.886;2023-03-23T12:53:52;7.15;;;1.90;;
75377;SDS011;63959;51.960;5.886;2023-03-23T12:56:23;6.10;;;2.33;;
75377;SDS011;63959;51.960;5.886;2023-03-23T12:58:58;7.50;;;2.33;;
75377;SDS011;63959;51.960;5.886;2023-03-23T13:01:30;6.95;;;2.35;;
75377;SDS011;63959;51.960;5.886;2023-03-23T13:04:01;8.95;;;2.60;;
75377;SDS011;63959;51.960;5.886;2023-03-23T13:06:34;6.88;;;2.45;;
75377;SDS011;63959;51.960;5.886;2023-03-23T13:09:04;8.30;;;2.75;;
75377;SDS011;63959;51.960;5.886;2023-03-23T13:11:36;9.32;;;3.38;;
75377;SDS011;63959;51.960;5.886;2023-03-23T13:14:13;8.85;;;2.50;;
75377;SDS011;63959;51.960;5.886;2023-03-23T13:16:44;6.97;;;2.42;;
75377;SDS011;63959;51.960;5.886;2023-03-23T13:19:16;8.68;;;2.22;;
75377;SDS011;63959;51.960;5.886;2023-03-23T13:21:48;9.10;;;2.00;;
75377;SDS011;63959;51.960;5.886;2023-03-23T13:24:19;9.50;;;2.70;;
75377;SDS011;63959;51.960;5.886;2023-03-23T13:26:50;10.77;;;2.60;;
75377;SDS011;63959;51.960;5.886;2023-03-23T13:29:24;5.40;;;1.85;;
75377;SDS011;63959;51.960;5.886;2023-03-23T13:32:03;8.02;;;2.00;;
75377;SDS011;63959;51.960;5.886;2023-03-23T13:34:32;8.02;;;2.20;;
75377;SDS011;63959;51.960;5.886;2023-03-23T13:37:02;9.23;;;2.03;;
75377;SDS011;63959;51.960;5.886;2023-03-23T13:39:33;4.20;;;1.30;;
75377;SDS011;63959;51.960;5.886;2023-03-23T13:42:04;8.02;;;2.13;;
75377;SDS011;63959;51.960;5.886;2023-03-23T13:44:43;7.22;;;2.30;;
75377;SDS011;63959;51.960;5.886;2023-03-23T13:47:20;5.47;;;1.60;;
75377;SDS011;63959;51.960;5.886;2023-03-23T13:49:50;5.03;;;1.90;;
75377;SDS011;63959;51.960;5.886;2023-03-23T13:52:22;5.55;;;2.13;;
75377;SDS011;63959;51.960;5.886;2023-03-23T13:54:52;6.97;;;2.03;;
75377;SDS011;63959;51.960;5.886;2023-03-23T13:57:37;5.43;;;1.95;;
75377;SDS011;63959;51.960;5.886;2023-03-23T14:00:22;5.60;;;1.58;;
75377;SDS011;63959;51.960;5.886;2023-03-23T14:02:58;5.47;;;1.70;;
75377;SDS011;63959;51.960;5.886;2023-03-23T14:08:14;7.05;;;2.50;;
75377;SDS011;63959;51.960;5.886;2023-03-23T14:10:51;7.03;;;2.35;;
75377;SDS011;63959;51.960;5.886;2023-03-23T14:13:24;6.28;;;1.95;;
75377;SDS011;63959;51.960;5.886;2023-03-23T14:16:01;6.40;;;3.03;;
75377;SDS011;63959;51.960;5.886;2023-03-23T14:18:31;6.38;;;2.60;;
75377;SDS011;63959;51.960;5.886;2023-03-23T14:21:00;6.57;;;2.38;;
75377;SDS011;63959;51.960;5.886;2023-03-23T14:23:32;8.95;;;3.13;;
75377;SDS011;63959;51.960;5.886;2023-03-23T14:26:02;7.70;;;2.90;;
75377;SDS011;63959;51.960;5.886;2023-03-23T14:28:38;9.50;;;2.92;;
75377;SDS011;63959;51.960;5.886;2023-03-23T14:31:15;7.05;;;2.25;;
75377;SDS011;63959;51.960;5.886;2023-03-23T14:33:44;4.72;;;2.00;;
75377;SDS011;63959;51.960;5.886;2023-03-23T14:36:13;7.80;;;2.60;;
75377;SDS011;63959;51.960;5.886;2023-03-23T14:38:42;7.63;;;2.80;;
75377;SDS011;63959;51.960;5.886;2023-03-23T14:41:11;8.32;;;2.85;;
75377;SDS011;63959;51.960;5.886;2023-03-23T14:43:39;9.10;;;2.72;;
75377;SDS011;63959;51.960;5.886;2023-03-23T14:46:09;8.45;;;2.50;;
75377;SDS011;63959;51.960;5.886;2023-03-23T14:48:42;6.68;;;2.30;;
75377;SDS011;63959;51.960;5.886;2023-03-23T14:51:16;6.90;;;2.10;;
75377;SDS011;63959;51.960;5.886;2023-03-23T14:53:45;6.85;;;2.33;;
75377;SDS011;63959;51.960;5.886;2023-03-23T14:56:18;9.20;;;2.08;;
75377;SDS011;63959;51.960;5.886;2023-03-23T14:58:48;6.85;;;1.80;;
75377;SDS011;63959;51.960;5.886;2023-03-23T15:01:19;8.95;;;2.17;;
75377;SDS011;63959;51.960;5.886;2023-03-23T15:03:52;6.10;;;1.60;;
75377;SDS011;63959;51.960;5.886;2023-03-23T15:06:21;7.50;;;1.60;;
75377;SDS011;63959;51.960;5.886;2023-03-23T15:08:52;5.88;;;1.23;;
75377;SDS011;63959;51.960;5.886;2023-03-23T15:11:23;7.43;;;2.40;;
75377;SDS011;63959;51.960;5.886;2023-03-23T15:13:53;7.75;;;1.60;;
75377;SDS011;63959;51.960;5.886;2023-03-23T15:16:23;6.18;;;1.80;;
75377;SDS011;63959;51.960;5.886;2023-03-23T15:18:56;7.30;;;1.83;;
75377;SDS011;63959;51.960;5.886;2023-03-23T15:21:27;6.75;;;1.58;;
75377;SDS011;63959;51.960;5.886;2023-03-23T15:23:56;5.72;;;1.55;;
75377;SDS011;63959;51.960;5.886;2023-03-23T15:26:28;5.28;;;1.48;;
75377;SDS011;63959;51.960;5.886;2023-03-23T15:29:08;5.55;;;1.40;;
75377;SDS011;63959;51.960;5.886;2023-03-23T15:31:39;7.93;;;1.95;;
75377;SDS011;63959;51.960;5.886;2023-03-23T15:34:14;9.73;;;1.75;;
75377;SDS011;63959;51.960;5.886;2023-03-23T15:36:43;6.43;;;1.73;;
75377;SDS011;63959;51.960;5.886;2023-03-23T15:39:12;7.18;;;1.40;;
75377;SDS011;63959;51.960;5.886;2023-03-23T15:41:46;6.90;;;1.90;;
75377;SDS011;63959;51.960;5.886;2023-03-23T15:44:29;7.47;;;2.28;;
75377;SDS011;63959;51.960;5.886;2023-03-23T15:47:03;5.97;;;1.33;;
75377;SDS011;63959;51.960;5.886;2023-03-23T15:49:34;10.13;;;2.33;;